createdAt,value
2017-11-01T07:39:12.065Z,11.93
2017-11-01T07:41:39.575Z,13.23
2017-11-01T07:44:07.044Z,12.07
2017-11-01T07:46:34.538Z,11.67
2017-11-01T07:49:02.016Z,12.87
2017-11-01T07:51:29.495Z,12.03
2017-11-01T07:53:57.024Z,12.20
2017-11-01T07:56:24.526Z,12.13
2017-11-01T07:58:52.043Z,12.70
2017-11-01T08:01:19.618Z,12.13
2017-11-01T08:03:47.198Z,12.00
2017-11-01T08:06:14.736Z,12.10
2017-11-01T08:08:42.268Z,12.53
2017-11-01T08:11:09.821Z,12.10
2017-11-01T08:13:37.272Z,13.03
2017-11-01T08:16:04.791Z,11.80
2017-11-01T08:18:32.411Z,12.13
2017-11-01T08:20:59.969Z,11.73
2017-11-01T08:23:28.520Z,12.43
2017-11-01T08:25:56.018Z,12.70
2017-11-01T08:28:24.825Z,13.27
2017-11-01T08:30:53.242Z,12.27
2017-11-01T08:33:20.915Z,12.57
2017-11-01T08:35:48.429Z,13.20
2017-11-01T08:38:15.968Z,12.80
2017-11-01T08:40:43.469Z,13.77
2017-11-01T08:43:11.017Z,12.90
2017-11-01T08:45:38.549Z,14.20
2017-11-01T08:48:06.116Z,14.10
2017-11-01T08:50:33.844Z,14.07
2017-11-01T08:55:43.298Z,13.83
2017-11-01T08:58:10.753Z,14.40
2017-11-01T09:00:38.264Z,13.53
2017-11-01T09:03:05.831Z,14.43
2017-11-01T09:05:33.356Z,15.03
2017-11-01T09:08:00.941Z,14.47
2017-11-01T09:10:28.518Z,14.83
2017-11-01T09:12:56.076Z,15.57
2017-11-01T09:15:23.626Z,15.63
2017-11-01T09:17:51.274Z,15.63
2017-11-01T09:20:18.978Z,14.57
2017-11-01T09:22:46.474Z,15.20
2017-11-01T09:25:13.951Z,14.77
2017-11-01T09:27:41.479Z,15.23
2017-11-01T09:30:09.059Z,14.30
2017-11-01T09:32:36.583Z,15.60
2017-11-01T09:35:04.076Z,16.17
2017-11-01T09:37:31.548Z,15.73
2017-11-01T09:39:59.119Z,15.50
2017-11-01T09:42:26.598Z,15.40
2017-11-01T09:44:54.331Z,14.53
2017-11-01T09:47:21.891Z,14.47
2017-11-01T09:49:49.436Z,15.13
2017-11-01T09:52:18.038Z,14.53
2017-11-01T09:54:46.523Z,14.57
2017-11-01T09:57:14.991Z,15.17
2017-11-01T09:59:43.517Z,14.60
2017-11-01T10:02:11.312Z,14.83
2017-11-01T10:04:38.908Z,14.87
2017-11-01T10:07:08.172Z,15.07
2017-11-01T10:09:35.685Z,14.73
2017-11-01T10:12:05.059Z,15.07
2017-11-01T10:14:35.306Z,14.10
2017-11-01T10:17:02.837Z,14.17
2017-11-01T10:19:30.917Z,13.67
2017-11-01T10:21:58.475Z,14.40
2017-11-01T10:24:25.971Z,13.97
2017-11-01T10:26:53.497Z,14.40
2017-11-01T10:29:21.012Z,13.77
2017-11-01T10:31:48.518Z,13.57
2017-11-01T10:34:16.049Z,13.97
2017-11-01T10:36:43.568Z,14.27
2017-11-01T10:39:11.121Z,13.37
2017-11-01T10:41:38.590Z,14.93
2017-11-01T10:44:06.110Z,15.17
2017-11-01T10:46:33.630Z,14.07
2017-11-01T10:49:01.181Z,15.30
2017-11-01T10:51:28.753Z,14.93
2017-11-01T10:53:56.239Z,14.63
2017-11-01T10:56:23.983Z,14.47
2017-11-01T10:58:51.471Z,14.23
2017-11-01T11:01:19.001Z,15.00
2017-11-01T11:03:46.468Z,14.37
2017-11-01T11:06:13.970Z,15.93
2017-11-01T11:08:41.479Z,15.37
2017-11-01T11:11:09.098Z,14.77
2017-11-01T11:13:36.650Z,14.20
2017-11-01T11:16:04.179Z,13.90
2017-11-01T11:18:31.704Z,15.30
2017-11-01T11:20:59.881Z,15.07
2017-11-01T11:23:27.385Z,14.53
2017-11-01T11:25:54.970Z,15.20
2017-11-01T11:28:22.527Z,14.73
2017-11-01T11:30:50.077Z,15.43
2017-11-01T11:33:17.637Z,15.10
2017-11-01T11:35:45.160Z,15.57
2017-11-01T11:38:22.946Z,16.03
2017-11-01T11:40:51.074Z,15.33
2017-11-01T11:43:19.776Z,15.13
2017-11-01T11:45:48.272Z,15.17
2017-11-01T11:48:18.377Z,15.97
2017-11-01T11:50:46.835Z,15.73
2017-11-01T11:53:16.640Z,14.87
2017-11-01T11:55:47.992Z,15.50
2017-11-01T11:58:15.689Z,16.10
2017-11-01T12:00:43.190Z,15.63
2017-11-01T12:03:10.697Z,16.63
2017-11-01T12:05:38.199Z,16.73
2017-11-01T12:08:05.702Z,15.73
2017-11-01T12:10:33.231Z,16.00
2017-11-01T12:13:00.748Z,16.50
2017-11-01T12:15:28.242Z,16.77
2017-11-01T12:17:55.744Z,17.67
2017-11-01T12:20:23.236Z,16.70
2017-11-01T12:22:50.890Z,16.73
2017-11-01T12:25:18.423Z,16.87
2017-11-01T12:27:45.921Z,16.13
2017-11-01T12:30:13.445Z,16.90
2017-11-01T12:32:40.980Z,17.20
2017-11-01T12:35:08.499Z,17.40
2017-11-01T12:37:35.998Z,16.97
2017-11-01T12:40:03.488Z,17.13
2017-11-01T12:42:30.986Z,17.33
2017-11-01T12:44:58.523Z,17.27
2017-11-01T12:47:26.020Z,17.50
2017-11-01T12:49:53.581Z,17.27
2017-11-01T12:52:21.091Z,16.20
2017-11-01T12:54:51.427Z,17.70
2017-11-01T12:57:19.855Z,16.93
2017-11-01T12:59:47.745Z,17.37
2017-11-01T13:02:17.412Z,18.10
2017-11-01T13:04:55.601Z,16.23
2017-11-01T13:07:29.139Z,15.80
2017-11-01T13:09:56.715Z,16.10
2017-11-01T13:12:24.923Z,16.53
2017-11-01T13:14:52.407Z,16.70
2017-11-01T13:17:19.995Z,16.50
2017-11-01T13:19:47.817Z,16.87
2017-11-01T13:22:15.771Z,17.10
2017-11-01T13:24:43.342Z,16.93
2017-11-01T13:27:10.916Z,17.10
2017-11-01T13:29:39.782Z,16.60
2017-11-01T13:32:07.948Z,16.37
2017-11-01T13:34:35.688Z,15.57
2017-11-01T13:37:11.321Z,15.53
2017-11-01T13:39:39.334Z,16.37
2017-11-01T13:42:07.008Z,15.83
2017-11-01T13:44:34.578Z,14.07
2017-11-01T13:47:02.082Z,16.23
2017-11-01T13:49:29.630Z,15.83
2017-11-01T13:52:00.350Z,15.33
2017-11-01T13:54:28.286Z,15.27
2017-11-01T13:56:55.782Z,15.70
2017-11-01T13:59:25.881Z,15.80
2017-11-01T14:01:53.594Z,14.73
2017-11-01T14:04:21.219Z,16.63
2017-11-01T14:06:50.370Z,15.10
2017-11-01T14:09:17.920Z,15.20
2017-11-01T14:11:45.377Z,14.90
2017-11-01T14:14:12.930Z,14.90
2017-11-01T14:16:40.772Z,15.27
2017-11-01T14:19:08.259Z,14.87
2017-11-01T14:21:36.334Z,15.43
2017-11-01T14:24:04.110Z,15.27
2017-11-01T14:26:31.642Z,14.40
2017-11-01T14:28:59.214Z,14.10
2017-11-01T14:31:26.836Z,14.13
2017-11-01T14:33:54.492Z,14.40
2017-11-01T14:36:21.965Z,14.00
2017-11-01T14:38:49.515Z,13.93
2017-11-01T14:41:17.052Z,14.10
2017-11-01T14:43:44.546Z,13.30
2017-11-01T14:46:12.176Z,12.30
2017-11-01T14:48:39.826Z,13.10
2017-11-01T14:51:07.348Z,12.63
2017-11-01T14:53:34.917Z,13.67
2017-11-01T14:56:02.423Z,13.30
2017-11-01T14:58:30.277Z,13.10
2017-11-01T15:00:57.748Z,14.13
2017-11-01T15:03:25.339Z,12.97
2017-11-01T15:05:52.932Z,13.50
2017-11-01T15:08:20.665Z,13.97
2017-11-01T15:10:48.188Z,13.77
2017-11-01T15:13:15.680Z,14.03
2017-11-01T15:15:43.498Z,14.30
2017-11-01T15:18:10.998Z,13.23
2017-11-01T15:20:38.582Z,13.70
2017-11-01T15:23:06.106Z,13.27
2017-11-01T15:25:33.630Z,13.27
2017-11-01T15:28:01.124Z,13.20
2017-11-01T15:30:28.631Z,12.07
2017-11-01T15:32:56.184Z,12.60
2017-11-01T15:35:23.695Z,13.10
2017-11-01T15:37:51.333Z,12.10
2017-11-01T15:40:18.993Z,13.63
2017-11-01T15:42:46.629Z,12.93
2017-11-01T15:45:14.180Z,12.93
2017-11-01T15:47:41.708Z,12.77
2017-11-01T15:50:09.193Z,12.53
2017-11-01T15:52:36.688Z,12.10
2017-11-01T15:55:04.283Z,13.03
2017-11-01T15:57:31.764Z,13.60
2017-11-01T15:59:59.290Z,11.63
2017-11-01T16:02:26.884Z,12.70
2017-11-01T16:04:54.405Z,12.33
2017-11-01T16:07:22.368Z,12.40
2017-11-01T16:09:49.903Z,12.53
2017-11-01T16:12:17.533Z,11.37
2017-11-01T16:14:45.004Z,11.63
2017-11-01T16:17:13.300Z,10.87
2017-11-01T16:19:40.829Z,12.87
2017-11-01T16:22:08.392Z,11.30
2017-11-01T16:24:35.900Z,10.90
2017-11-01T16:27:03.392Z,11.93
2017-11-01T16:29:30.922Z,11.10
2017-11-01T16:31:58.407Z,10.90
2017-11-01T16:34:25.968Z,10.87
2017-11-01T16:36:53.507Z,11.30
2017-11-01T16:39:21.057Z,11.33
2017-11-01T16:41:48.686Z,11.20
2017-11-01T16:44:16.179Z,11.47
2017-11-01T16:46:43.752Z,11.23
2017-11-01T16:49:11.245Z,11.37
2017-11-01T16:51:38.851Z,12.13
2017-11-01T16:54:06.329Z,11.30
2017-11-01T16:56:33.815Z,11.83
2017-11-01T16:59:01.626Z,11.97
2017-11-01T17:01:29.235Z,13.33
2017-11-01T17:03:56.823Z,11.80
2017-11-01T17:06:24.386Z,12.23
2017-11-01T17:08:51.996Z,10.77
2017-11-01T17:11:19.524Z,13.07
2017-11-01T17:13:47.060Z,11.83
2017-11-01T17:16:14.625Z,13.03
2017-11-01T17:18:42.121Z,12.60
2017-11-01T17:21:09.663Z,13.50
2017-11-01T17:23:37.157Z,13.30
2017-11-01T17:26:04.700Z,13.80
2017-11-01T17:28:32.188Z,14.30
2017-11-01T17:30:59.759Z,13.00
2017-11-01T17:33:27.264Z,13.40
2017-11-01T17:35:54.787Z,14.07
2017-11-01T17:38:22.342Z,14.40
2017-11-01T17:40:49.849Z,14.20
2017-11-01T17:43:17.370Z,13.87
2017-11-01T17:45:44.859Z,13.90
2017-11-01T17:48:12.335Z,13.57
2017-11-01T17:50:39.880Z,13.10
2017-11-01T17:53:07.429Z,12.77
2017-11-01T17:55:34.953Z,13.07
2017-11-01T17:58:02.539Z,13.13
2017-11-01T18:00:30.085Z,13.23
2017-11-01T18:02:57.614Z,12.57
2017-11-01T18:05:25.104Z,12.73
2017-11-01T18:07:58.129Z,12.87
2017-11-01T18:10:25.679Z,11.97
2017-11-01T18:12:53.174Z,12.57
2017-11-01T18:15:20.668Z,12.77
2017-11-01T18:17:48.198Z,11.83
2017-11-01T18:20:15.711Z,13.30
2017-11-01T18:22:43.267Z,13.40
2017-11-01T18:25:10.733Z,13.27
2017-11-01T18:27:38.449Z,13.47
2017-11-01T18:30:05.953Z,12.87
2017-11-01T18:32:33.534Z,12.87
2017-11-01T18:35:01.067Z,12.80
2017-11-01T18:37:29.282Z,13.50
2017-11-01T18:39:56.784Z,13.33
2017-11-01T18:42:24.264Z,13.83
2017-11-01T18:44:51.801Z,13.23
2017-11-01T18:47:19.365Z,13.60
2017-11-01T18:49:47.688Z,14.00
2017-11-01T18:52:15.583Z,14.47
2017-11-01T18:54:43.156Z,13.17
2017-11-01T18:57:10.692Z,14.17
2017-11-01T18:59:38.224Z,12.57
2017-11-01T19:02:05.763Z,14.67
2017-11-01T19:04:33.505Z,13.33
2017-11-01T19:07:01.051Z,14.33
2017-11-01T19:09:28.603Z,14.20
2017-11-01T19:11:56.246Z,14.07
2017-11-01T19:14:23.766Z,14.10
2017-11-01T19:16:51.375Z,12.87
2017-11-01T19:19:18.872Z,13.97
2017-11-01T19:21:46.506Z,13.57
2017-11-01T19:24:13.973Z,14.10
2017-11-01T19:26:41.498Z,13.57
2017-11-01T19:29:09.145Z,13.43
2017-11-01T19:31:36.916Z,12.80
2017-11-01T19:34:04.413Z,13.77
2017-11-01T19:36:31.988Z,13.43
2017-11-01T19:38:59.636Z,13.77
2017-11-01T19:41:27.235Z,13.30
2017-11-01T19:43:54.826Z,13.27
2017-11-01T19:46:22.407Z,13.17
2017-11-01T19:48:50.093Z,12.77
2017-11-01T19:51:18.633Z,13.13
2017-11-01T19:53:46.190Z,12.67
2017-11-01T19:56:13.968Z,12.40
2017-11-01T19:58:41.508Z,12.77
2017-11-01T20:01:09.319Z,11.97
2017-11-01T20:03:36.846Z,12.33
2017-11-01T20:06:04.608Z,11.37
2017-11-01T20:08:32.393Z,11.17
2017-11-01T20:11:00.094Z,11.97
2017-11-01T20:13:27.646Z,13.53
2017-11-01T20:15:55.205Z,10.83
2017-11-01T20:18:22.762Z,10.80
2017-11-01T20:20:50.298Z,10.13
2017-11-01T20:23:17.870Z,10.63
2017-11-01T20:25:46.994Z,9.70
2017-11-01T20:28:15.588Z,10.70
2017-11-01T20:30:43.711Z,10.10
2017-11-01T20:33:11.264Z,10.13
2017-11-01T20:35:38.854Z,9.97
2017-11-01T20:38:11.379Z,9.40
2017-11-01T20:40:52.254Z,10.23
2017-11-01T20:43:20.057Z,9.20
2017-11-01T20:45:47.586Z,8.60
2017-11-01T20:48:15.382Z,9.03
2017-11-01T20:50:42.989Z,9.73
2017-11-01T20:53:10.470Z,9.77
2017-11-01T20:55:37.960Z,10.17
2017-11-01T20:58:05.530Z,9.03
2017-11-01T21:00:32.977Z,8.43
2017-11-01T21:03:00.474Z,9.00
2017-11-01T21:05:28.557Z,8.33
2017-11-01T21:07:57.084Z,9.43
2017-11-01T21:10:24.668Z,9.47
2017-11-01T21:12:52.178Z,8.63
2017-11-01T21:15:19.732Z,8.67
2017-11-01T21:17:47.317Z,9.07
2017-11-01T21:20:14.977Z,8.97
2017-11-01T21:22:42.490Z,8.60
2017-11-01T21:25:10.047Z,9.63
2017-11-01T21:27:37.537Z,8.77
2017-11-01T21:30:05.123Z,8.40
2017-11-01T21:32:32.635Z,8.33
2017-11-01T21:35:00.139Z,9.20
2017-11-01T21:37:27.618Z,9.07
2017-11-01T21:39:55.139Z,8.80
2017-11-01T21:42:22.640Z,9.37
2017-11-01T21:44:50.150Z,8.97
2017-11-01T21:47:17.668Z,8.83
2017-11-01T21:49:45.207Z,8.57
2017-11-01T21:52:12.696Z,8.77
2017-11-01T21:54:40.224Z,9.70
2017-11-01T21:57:07.692Z,8.73
2017-11-01T21:59:35.245Z,8.93
2017-11-01T22:02:02.746Z,8.70
2017-11-01T22:04:30.266Z,9.10
2017-11-01T22:06:57.754Z,9.37
2017-11-01T22:09:25.231Z,9.07
2017-11-01T22:11:52.723Z,10.17
2017-11-01T22:14:20.221Z,8.97
2017-11-01T22:16:47.739Z,9.40
2017-11-01T22:19:15.235Z,9.33
2017-11-01T22:21:43.650Z,9.73
2017-11-01T22:24:11.168Z,8.83
2017-11-01T22:26:38.652Z,10.10
2017-11-01T22:29:06.163Z,9.90
2017-11-01T22:31:33.688Z,10.83
2017-11-01T22:34:01.210Z,11.83
2017-11-01T22:36:28.762Z,10.27
2017-11-01T22:38:56.315Z,11.37
2017-11-01T22:41:23.834Z,10.90
2017-11-01T22:43:51.308Z,10.50
2017-11-01T22:46:18.777Z,11.70
2017-11-01T22:48:46.641Z,11.20
2017-11-01T22:51:14.103Z,11.30
2017-11-01T22:53:41.616Z,12.17
2017-11-01T22:56:09.129Z,11.57
2017-11-01T22:58:36.633Z,11.13
2017-11-01T23:01:04.130Z,10.73
2017-11-01T23:03:31.633Z,11.57
2017-11-01T23:05:59.157Z,11.60
2017-11-01T23:08:26.732Z,11.70
2017-11-01T23:10:54.207Z,11.47
2017-11-01T23:13:21.692Z,11.60
2017-11-01T23:15:49.222Z,11.47
2017-11-01T23:18:16.732Z,12.07
2017-11-01T23:20:44.199Z,10.53
2017-11-01T23:23:11.692Z,12.10
2017-11-01T23:25:39.204Z,12.40
2017-11-01T23:28:06.713Z,11.23
2017-11-01T23:30:34.199Z,10.87
2017-11-01T23:33:01.669Z,10.63
2017-11-01T23:35:29.165Z,11.13
2017-11-01T23:37:56.639Z,11.40
2017-11-01T23:40:24.116Z,11.73
2017-11-01T23:42:51.587Z,12.27
2017-11-01T23:45:19.081Z,11.57
2017-11-01T23:47:46.568Z,12.63
2017-11-01T23:50:14.036Z,12.07
2017-11-01T23:52:41.560Z,11.80
2017-11-01T23:55:09.082Z,12.43
2017-11-01T23:57:36.616Z,12.27
